Time;durP1;ratioP1;P1;durP2;ratioP2;P2;SDS_P1;SDS_P2;PMS_P1;PMS_P2;Temp;Humidity;BMP_temperature;BMP_pressure;BME280_temperature;BME280_humidity;BME280_pressure;Samples;Min_cycle;Max_cycle;Signal;HPM_P1;HPM_P2
2022/10/09 00:01:02;;;;;;;;;;;8.00;99.90;;;;;;4993849;28;19921;-68
2022/10/09 00:03:27;;;;;;;;;;;8.00;99.90;;;;;;4994345;28;19921;-68
2022/10/09 00:05:53;;;;;;;;;;;8.00;99.90;;;;;;4993573;28;19921;-68
2022/10/09 00:08:18;;;;;;;;;;;8.00;99.90;;;;;;4994225;28;20397;-68
2022/10/09 00:10:47;;;;;;;;;;;8.90;99.90;;;;;;4994002;28;21430;-68
2022/10/09 00:13:13;;;;;;;;;;;7.80;99.90;;;;;;5010998;28;19921;-67
2022/10/09 00:15:39;;;;;;;;;;;7.90;99.90;;;;;;5011534;28;19928;-68
2022/10/09 00:18:05;;;;;;;;;;;7.90;99.90;;;;;;4993455;28;20059;-68
2022/10/09 00:20:34;;;;;;;;;;;7.90;99.90;;;;;;4993516;28;20011;-68
2022/10/09 00:23:00;;;;;;;;;;;7.90;99.90;;;;;;5011998;28;19922;-68
2022/10/09 00:25:25;;;;;;;;;;;7.90;99.90;;;;;;5007950;28;20396;-68
2022/10/09 00:27:55;;;;;;;;;;;7.90;99.90;;;;;;4993903;28;20000;-68
2022/10/09 00:30:21;;;;;;;;;;;7.80;99.90;;;;;;5011095;28;20428;-68
2022/10/09 00:32:46;;;;;;;;;;;7.80;99.90;;;;;;5010725;28;20060;-68
2022/10/09 00:35:12;;;;;;;;;;;7.80;99.90;;;;;;4994328;28;19921;-68
2022/10/09 00:37:38;;;;;;;;;;;7.80;99.90;;;;;;5011563;28;19921;-68
2022/10/09 00:40:03;;;;;;;;;;;7.90;99.90;;;;;;5010855;28;20408;-68
2022/10/09 00:42:29;;;;;;;;;;;7.80;99.90;;;;;;4989145;28;20004;-68
2022/10/09 00:44:56;;;;;;;;;;;7.80;99.90;;;;;;4989560;28;19925;-68
2022/10/09 00:47:25;;;;;;;;;;;7.80;99.90;;;;;;4993119;28;20336;-68
2022/10/09 00:49:52;;;;;;;;;;;7.80;99.90;;;;;;5005645;28;20019;-68
2022/10/09 00:52:21;;;;;;;;;;;7.70;99.90;;;;;;5030896;28;19928;-68
2022/10/09 00:54:47;;;;;;;;;;;7.70;99.90;;;;;;5012782;28;19979;-68
2022/10/09 00:57:13;;;;;;;;;;;7.70;99.90;;;;;;5030652;28;20380;-68
2022/10/09 00:59:41;;;;;;;;;;;7.70;99.90;;;;;;5030588;28;20403;-67
2022/10/09 01:02:07;;;;;;;;;;;7.70;99.90;;;;;;5013034;28;20284;-68
2022/10/09 01:04:33;;;;;;;;;;;7.60;99.90;;;;;;5030878;28;19921;-68
2022/10/09 01:07:11;;;;;;;;;;;7.60;99.90;;;;;;5013198;28;19928;-68
2022/10/09 01:09:44;;;;;;;;;;;7.60;99.90;;;;;;5012772;28;19929;-65
2022/10/09 01:12:13;;;;;;;;;;;7.60;99.90;;;;;;5026594;28;19933;-65
2022/10/09 01:14:43;;;;;;;;;;;7.60;99.90;;;;;;5030020;28;19920;-65
2022/10/09 01:17:31;;;;;;;;;;;7.50;99.90;;;;;;5013639;28;20254;-65
2022/10/09 01:20:06;;;;;;;;;;;7.50;99.90;;;;;;5013126;28;19929;-65
2022/10/09 01:22:47;;;;;;;;;;;7.50;99.90;;;;;;5011803;28;19925;-65
2022/10/09 01:25:20;;;;;;;;;;;7.50;99.90;;;;;;5009987;28;19966;-65
2022/10/09 01:27:46;;;;;;;;;;;7.50;99.90;;;;;;5034266;28;19921;-68
2022/10/09 01:30:17;;;;;;;;;;;7.50;99.90;;;;;;5016511;28;19917;-67
2022/10/09 01:32:45;;;;;;;;;;;7.50;99.90;;;;;;5033621;28;20015;-68
2022/10/09 01:35:13;;;;;;;;;;;7.40;99.90;;;;;;5016771;28;19976;-68
2022/10/09 01:37:39;;;;;;;;;;;7.40;99.90;;;;;;5033347;28;19964;-68
2022/10/09 01:40:11;;;;;;;;;;;7.40;99.90;;;;;;5034126;28;19943;-67
2022/10/09 01:42:37;;;;;;;;;;;7.40;99.90;;;;;;5011164;28;20369;-68
2022/10/09 01:45:02;;;;;;;;;;;7.50;99.90;;;;;;5016304;28;19932;-68
2022/10/09 01:47:28;;;;;;;;;;;7.40;99.90;;;;;;5033559;28;20384;-68
2022/10/09 01:49:58;;;;;;;;;;;7.40;99.90;;;;;;5033142;28;20000;-68
2022/10/09 01:52:28;;;;;;;;;;;7.40;99.90;;;;;;5015884;28;19921;-67
2022/10/09 01:55:00;;;;;;;;;;;7.40;99.90;;;;;;5015940;28;20285;-68
2022/10/09 01:57:44;;;;;;;;;;;7.40;99.90;;;;;;5033208;28;19921;-67
2022/10/09 02:00:11;;;;;;;;;;;7.40;99.90;;;;;;5031216;28;20402;-68
2022/10/09 02:02:37;;;;;;;;;;;7.40;99.90;;;;;;5015451;28;19929;-68
2022/10/09 02:05:04;;;;;;;;;;;7.30;99.90;;;;;;5033790;28;19983;-68
2022/10/09 02:07:30;;;;;;;;;;;7.30;99.90;;;;;;5015824;28;19974;-68
2022/10/09 02:09:56;;;;;;;;;;;7.20;99.90;;;;;;5033351;28;19925;-68
2022/10/09 02:12:24;;;;;;;;;;;7.10;99.90;;;;;;5014818;28;19921;-68
2022/10/09 02:14:49;;;;;;;;;;;7.10;99.90;;;;;;5033847;28;20015;-67
2022/10/09 02:17:17;;;;;;;;;;;7.00;99.90;;;;;;5033754;28;20322;-67
2022/10/09 02:19:42;;;;;;;;;;;7.00;99.90;;;;;;5032214;28;20007;-67
2022/10/09 02:22:13;;;;;;;;;;;6.90;99.90;;;;;;5016080;28;19964;-68
2022/10/09 02:24:40;;;;;;;;;;;6.80;99.90;;;;;;5032571;28;19921;-67
2022/10/09 02:27:06;;;;;;;;;;;6.80;99.90;;;;;;5015565;28;19921;-68
2022/10/09 02:29:32;;;;;;;;;;;6.70;99.90;;;;;;5015041;28;19928;-68
2022/10/09 02:31:57;;;;;;;;;;;6.70;99.90;;;;;;5032955;28;19921;-68
2022/10/09 02:34:24;;;;;;;;;;;6.70;99.90;;;;;;5015156;28;19921;-67
2022/10/09 02:36:52;;;;;;;;;;;6.70;99.90;;;;;;5015027;28;19925;-67
2022/10/09 02:39:18;;;;;;;;;;;6.70;99.90;;;;;;5013822;28;19928;-68
2022/10/09 02:41:43;;;;;;;;;;;6.80;99.90;;;;;;5033358;28;19922;-67
2022/10/09 02:44:09;;;;;;;;;;;6.80;99.90;;;;;;5033509;28;20385;-67
2022/10/09 02:46:36;;;;;;;;;;;6.90;99.90;;;;;;5032074;28;19920;-67
2022/10/09 02:49:02;;;;;;;;;;;6.90;99.90;;;;;;5032709;28;20399;-68
2022/10/09 02:51:27;;;;;;;;;;;6.90;99.90;;;;;;5008912;28;19921;-68
2022/10/09 02:53:53;;;;;;;;;;;6.90;99.90;;;;;;5032420;28;20369;-67
2022/10/09 02:56:22;;;;;;;;;;;7.00;99.90;;;;;;5032883;28;19921;-67
2022/10/09 02:58:50;;;;;;;;;;;7.00;99.90;;;;;;5033059;28;19936;-67
2022/10/09 03:01:16;;;;;;;;;;;7.10;99.90;;;;;;5032321;28;19921;-67
2022/10/09 03:03:41;;;;;;;;;;;7.10;99.90;;;;;;5014748;28;19921;-68
2022/10/09 03:06:15;;;;;;;;;;;7.20;99.90;;;;;;5014616;28;19921;-67
2022/10/09 03:08:45;;;;;;;;;;;7.20;99.90;;;;;;5013518;28;19971;-67
2022/10/09 03:11:12;;;;;;;;;;;7.20;99.90;;;;;;5014429;28;19925;-65
2022/10/09 03:13:38;;;;;;;;;;;7.40;99.90;;;;;;5014317;28;20348;-65
2022/10/09 03:16:05;;;;;;;;;;;7.10;99.90;;;;;;5031965;28;20385;-67
2022/10/09 03:18:30;;;;;;;;;;;7.20;99.90;;;;;;5032048;28;19948;-67
2022/10/09 03:20:56;;;;;;;;;;;7.10;99.90;;;;;;5013704;28;19924;-67
2022/10/09 03:23:22;;;;;;;;;;;7.00;99.90;;;;;;5032173;28;19928;-67
2022/10/09 03:25:54;;;;;;;;;;;7.00;99.90;;;;;;5015049;28;19921;-68
2022/10/09 03:28:20;;;;;;;;;;;7.00;99.90;;;;;;5010030;28;19921;-67
2022/10/09 03:30:45;;;;;;;;;;;7.00;99.90;;;;;;5032189;28;19921;-67
2022/10/09 03:33:14;;;;;;;;;;;7.10;99.90;;;;;;5032389;28;20500;-67
2022/10/09 03:35:55;;;;;;;;;;;7.10;99.90;;;;;;5031716;28;20327;-67
2022/10/09 03:38:24;;;;;;;;;;;7.00;99.90;;;;;;5028392;28;19928;-67
2022/10/09 03:40:49;;;;;;;;;;;7.00;99.90;;;;;;5032005;28;20336;-67
2022/10/09 03:43:15;;;;;;;;;;;7.00;99.90;;;;;;5009844;28;19921;-67
2022/10/09 03:45:41;;;;;;;;;;;7.00;99.90;;;;;;5014282;28;20369;-66
2022/10/09 03:48:07;;;;;;;;;;;7.10;99.90;;;;;;5014086;28;19925;-67
2022/10/09 03:50:32;;;;;;;;;;;7.00;99.90;;;;;;5030030;28;20765;-67
2022/10/09 03:52:58;;;;;;;;;;;7.00;99.90;;;;;;5031629;28;19921;-67
2022/10/09 03:55:23;;;;;;;;;;;6.90;99.90;;;;;;5013751;28;19921;-67
2022/10/09 03:57:49;;;;;;;;;;;7.00;99.90;;;;;;5013320;28;19928;-67
2022/10/09 04:00:15;;;;;;;;;;;7.00;99.90;;;;;;5013784;28;19928;-66
2022/10/09 04:02:41;;;;;;;;;;;7.00;99.90;;;;;;5013804;28;20000;-67
2022/10/09 04:05:07;;;;;;;;;;;6.90;99.90;;;;;;5030833;28;20000;-67
2022/10/09 04:07:33;;;;;;;;;;;6.90;99.90;;;;;;5013363;28;19967;-67
2022/10/09 04:09:58;;;;;;;;;;;6.90;99.90;;;;;;5031653;28;19921;-67
2022/10/09 04:12:24;;;;;;;;;;;6.90;99.90;;;;;;5030692;28;19921;-67
2022/10/09 04:14:50;;;;;;;;;;;6.90;99.90;;;;;;5031230;28;19925;-67
2022/10/09 04:17:15;;;;;;;;;;;6.90;99.90;;;;;;5030800;28;19921;-67
2022/10/09 04:19:41;;;;;;;;;;;6.90;99.90;;;;;;5031344;28;20017;-67
2022/10/09 04:22:06;;;;;;;;;;;6.80;99.90;;;;;;5031328;28;20381;-66
2022/10/09 04:24:32;;;;;;;;;;;6.80;99.90;;;;;;5013017;28;19929;-66
2022/10/09 04:26:57;;;;;;;;;;;6.70;99.90;;;;;;5013969;28;19928;-67
2022/10/09 04:29:23;;;;;;;;;;;6.70;99.90;;;;;;5012985;28;19921;-67
2022/10/09 04:31:48;;;;;;;;;;;6.70;99.90;;;;;;5030344;28;19921;-66
2022/10/09 04:34:14;;;;;;;;;;;6.70;99.90;;;;;;5031164;28;20012;-67
2022/10/09 04:36:39;;;;;;;;;;;6.90;99.90;;;;;;5031459;28;19921;-66
2022/10/09 04:39:05;;;;;;;;;;;6.80;99.90;;;;;;5030664;28;19917;-66
2022/10/09 04:41:30;;;;;;;;;;;6.80;99.90;;;;;;5012792;28;19921;-66
2022/10/09 04:43:56;;;;;;;;;;;6.80;99.90;;;;;;5005634;28;20008;-66
2022/10/09 04:46:24;;;;;;;;;;;6.80;99.90;;;;;;5004446;28;19921;-66
2022/10/09 04:48:51;;;;;;;;;;;6.80;99.90;;;;;;5012241;28;19929;-66
2022/10/09 04:51:17;;;;;;;;;;;6.90;99.90;;;;;;5027939;28;20408;-67
2022/10/09 04:53:43;;;;;;;;;;;6.80;99.90;;;;;;5011962;28;19921;-66
2022/10/09 04:56:11;;;;;;;;;;;6.90;99.90;;;;;;5028303;28;19968;-67
2022/10/09 04:58:39;;;;;;;;;;;6.80;99.90;;;;;;5031025;28;19984;-66
2022/10/09 05:01:09;;;;;;;;;;;8.00;99.90;;;;;;5011193;28;20019;-66
2022/10/09 05:03:35;;;;;;;;;;;6.80;99.90;;;;;;5031290;28;19987;-66
2022/10/09 05:06:01;;;;;;;;;;;6.90;99.90;;;;;;5035045;28;20345;-67
2022/10/09 05:08:27;;;;;;;;;;;6.90;99.90;;;;;;5015201;28;19932;-67
2022/10/09 05:10:52;;;;;;;;;;;7.00;99.90;;;;;;5017048;28;19921;-67
2022/10/09 05:13:18;;;;;;;;;;;7.00;99.90;;;;;;5016651;28;20131;-67
2022/10/09 05:15:46;;;;;;;;;;;7.00;99.90;;;;;;5016254;28;19928;-67
2022/10/09 05:18:11;;;;;;;;;;;7.00;99.90;;;;;;5016608;28;20289;-66
2022/10/09 05:20:43;;;;;;;;;;;7.00;99.90;;;;;;5033637;28;19928;-67
2022/10/09 05:23:08;;;;;;;;;;;7.00;99.90;;;;;;5016473;28;19921;-66
2022/10/09 05:25:37;;;;;;;;;;;7.00;99.90;;;;;;5016536;28;19929;-67
2022/10/09 05:28:03;;;;;;;;;;;7.00;99.90;;;;;;5016148;28;19931;-67
2022/10/09 05:30:29;;;;;;;;;;;7.00;99.90;;;;;;5016318;28;19925;-67
2022/10/09 05:32:54;;;;;;;;;;;7.00;99.90;;;;;;5034445;28;19966;-67
2022/10/09 05:35:20;;;;;;;;;;;7.00;99.90;;;;;;5032880;28;19982;-67
2022/10/09 05:37:45;;;;;;;;;;;6.90;99.90;;;;;;5016562;28;19921;-67
2022/10/09 05:40:11;;;;;;;;;;;6.90;99.90;;;;;;5033966;28;19921;-67
2022/10/09 05:42:36;;;;;;;;;;;6.90;99.90;;;;;;5033184;28;19929;-67
2022/10/09 05:45:02;;;;;;;;;;;6.80;99.90;;;;;;5015344;28;19921;-67
2022/10/09 05:47:30;;;;;;;;;;;6.80;99.90;;;;;;5016230;28;20014;-67
2022/10/09 05:50:02;;;;;;;;;;;6.80;99.90;;;;;;5011533;28;19925;-66
2022/10/09 05:52:28;;;;;;;;;;;6.80;99.90;;;;;;5012734;28;20027;-67
2022/10/09 05:54:55;;;;;;;;;;;6.90;99.90;;;;;;5011740;28;20412;-67
2022/10/09 05:57:21;;;;;;;;;;;6.80;99.90;;;;;;5011182;28;19952;-69
2022/10/09 05:59:46;;;;;;;;;;;6.80;99.90;;;;;;5034034;28;20030;-67
2022/10/09 06:02:13;;;;;;;;;;;6.80;99.90;;;;;;5033926;28;19968;-68
2022/10/09 06:04:38;;;;;;;;;;;6.90;99.90;;;;;;5032877;28;19921;-68
2022/10/09 06:07:06;;;;;;;;;;;6.80;99.90;;;;;;5015538;28;20403;-67
2022/10/09 06:09:32;;;;;;;;;;;6.80;99.90;;;;;;5033135;28;20016;-66
2022/10/09 06:11:57;;;;;;;;;;;6.80;99.90;;;;;;5032601;28;19972;-66
2022/10/09 06:14:23;;;;;;;;;;;6.80;99.90;;;;;;5033613;28;19927;-66
2022/10/09 06:16:49;;;;;;;;;;;7.10;99.90;;;;;;5028779;28;19927;-67
2022/10/09 06:19:21;;;;;;;;;;;6.80;99.90;;;;;;5011898;28;19921;-66
2022/10/09 06:21:48;;;;;;;;;;;6.90;99.90;;;;;;5015737;28;20031;-66
2022/10/09 06:24:18;;;;;;;;;;;6.90;99.90;;;;;;5014475;28;19947;-66
2022/10/09 06:26:43;;;;;;;;;;;7.00;99.90;;;;;;5033642;28;20025;-67
2022/10/09 06:29:09;;;;;;;;;;;7.00;99.90;;;;;;5015467;28;19953;-67
2022/10/09 06:31:34;;;;;;;;;;;7.10;99.90;;;;;;5032391;28;20285;-67
2022/10/09 06:34:01;;;;;;;;;;;7.20;99.90;;;;;;5014797;28;19939;-67
2022/10/09 06:36:28;;;;;;;;;;;7.20;99.90;;;;;;5032919;28;19925;-66
2022/10/09 06:38:54;;;;;;;;;;;7.10;99.90;;;;;;5014588;28;20023;-66
2022/10/09 06:41:22;;;;;;;;;;;7.10;99.90;;;;;;5032921;28;19933;-66
2022/10/09 06:43:52;;;;;;;;;;;7.20;99.90;;;;;;5015008;28;19928;-67
2022/10/09 06:46:22;;;;;;;;;;;7.30;99.90;;;;;;5030807;28;19966;-67
2022/10/09 06:48:48;;;;;;;;;;;7.40;99.90;;;;;;5011550;28;19921;-67
2022/10/09 06:51:14;;;;;;;;;;;7.50;99.90;;;;;;5033130;28;19928;-67
2022/10/09 06:53:42;;;;;;;;;;;7.50;99.90;;;;;;5031957;28;19928;-67
2022/10/09 06:56:09;;;;;;;;;;;7.50;99.90;;;;;;5010849;28;19936;-67
2022/10/09 06:58:35;;;;;;;;;;;7.60;99.90;;;;;;5014083;28;19970;-67
2022/10/09 07:01:09;;;;;;;;;;;7.70;99.90;;;;;;5031756;28;20027;-67
2022/10/09 07:03:38;;;;;;;;;;;7.70;99.90;;;;;;5014600;28;20361;-68
2022/10/09 07:06:14;;;;;;;;;;;7.70;99.90;;;;;;5014059;28;20016;-67
2022/10/09 07:08:43;;;;;;;;;;;7.90;99.90;;;;;;5032318;28;19921;-68
2022/10/09 07:11:09;;;;;;;;;;;7.80;99.90;;;;;;5010634;28;19928;-65
2022/10/09 07:13:35;;;;;;;;;;;7.90;99.90;;;;;;5031300;28;19929;-67
2022/10/09 07:16:00;;;;;;;;;;;8.00;99.90;;;;;;5032566;28;19967;-67
2022/10/09 07:18:26;;;;;;;;;;;8.10;99.90;;;;;;5032088;28;19921;-67
2022/10/09 07:20:51;;;;;;;;;;;8.30;99.90;;;;;;5013815;28;19932;-67
2022/10/09 07:23:17;;;;;;;;;;;8.30;99.90;;;;;;5013527;28;19928;-66
2022/10/09 07:25:42;;;;;;;;;;;8.40;99.90;;;;;;5010996;28;19922;-67
2022/10/09 07:28:08;;;;;;;;;;;8.50;99.90;;;;;;5031359;28;19920;-67
2022/10/09 07:30:36;;;;;;;;;;;8.50;99.90;;;;;;5014388;28;19921;-67
2022/10/09 07:33:05;;;;;;;;;;;8.70;99.90;;;;;;5014536;28;19929;-67
2022/10/09 07:35:33;;;;;;;;;;;8.70;99.90;;;;;;5013245;28;19921;-67
2022/10/09 07:37:59;;;;;;;;;;;8.80;99.90;;;;;;5029735;28;19925;-67
2022/10/09 07:40:24;;;;;;;;;;;8.90;99.90;;;;;;5012277;28;19921;-66
2022/10/09 07:42:50;;;;;;;;;;;9.00;99.90;;;;;;5030544;28;19921;-68
2022/10/09 07:45:16;;;;;;;;;;;9.10;99.90;;;;;;5031213;28;19920;-67
2022/10/09 07:47:41;;;;;;;;;;;9.40;99.90;;;;;;5030282;28;19921;-70
2022/10/09 07:50:07;;;;;;;;;;;9.50;99.90;;;;;;5029364;28;20052;-69
2022/10/09 07:52:32;;;;;;;;;;;10.20;99.90;;;;;;5012607;28;19929;-68
2022/10/09 07:54:58;;;;;;;;;;;11.50;99.90;;;;;;5013200;28;19929;-68
2022/10/09 07:57:26;;;;;;;;;;;12.90;99.90;;;;;;5030245;28;19921;-67
2022/10/09 07:59:52;;;;;;;;;;;14.30;99.90;;;;;;5012949;28;19932;-66
2022/10/09 08:02:17;;;;;;;;;;;15.50;99.90;;;;;;5012180;28;20342;-67
2022/10/09 08:04:43;;;;;;;;;;;16.40;99.90;;;;;;5012444;28;19936;-67
2022/10/09 08:07:08;;;;;;;;;;;17.10;99.90;;;;;;5012910;28;19928;-68
2022/10/09 08:09:34;;;;;;;;;;;17.70;99.90;;;;;;5010624;28;20505;-68
2022/10/09 08:11:59;;;;;;;;;;;18.30;99.90;;;;;;5013617;28;19921;-70
2022/10/09 08:14:25;;;;;;;;;;;18.50;99.90;;;;;;5008957;28;20392;-70
2022/10/09 08:16:53;;;;;;;;;;;18.60;99.10;;;;;;5030164;28;19921;-66
2022/10/09 08:19:19;;;;;;;;;;;19.00;99.20;;;;;;5031654;28;19928;-68
2022/10/09 08:21:44;;;;;;;;;;;19.40;99.90;;;;;;5031096;28;19921;-75
2022/10/09 08:24:10;;;;;;;;;;;20.10;98.30;;;;;;5013041;28;19920;-70
2022/10/09 08:26:36;;;;;;;;;;;20.60;96.90;;;;;;5031450;28;20047;-70
2022/10/09 08:29:02;;;;;;;;;;;20.80;97.10;;;;;;5012915;28;20318;-69
2022/10/09 08:31:28;;;;;;;;;;;21.20;95.10;;;;;;5030390;28;19927;-70
2022/10/09 08:33:55;;;;;;;;;;;21.30;94.70;;;;;;5014012;28;19920;-69
2022/10/09 08:36:21;;;;;;;;;;;21.30;95.00;;;;;;5016841;28;20399;-70
2022/10/09 08:38:46;;;;;;;;;;;21.50;94.50;;;;;;5034795;28;20142;-70
2022/10/09 08:41:15;;;;;;;;;;;21.80;94.80;;;;;;5016771;28;20369;-69
2022/10/09 08:43:45;;;;;;;;;;;22.00;94.00;;;;;;5016924;28;19921;-68
2022/10/09 08:46:16;;;;;;;;;;;22.00;94.20;;;;;;5017213;28;19921;-70
2022/10/09 08:48:43;;;;;;;;;;;22.30;94.20;;;;;;5034357;28;19921;-69
2022/10/09 08:51:21;;;;;;;;;;;22.40;93.30;;;;;;5016967;28;19927;-69
2022/10/09 08:53:49;;;;;;;;;;;22.50;93.50;;;;;;5016227;28;19941;-69
2022/10/09 08:56:15;;;;;;;;;;;22.90;92.90;;;;;;5034834;28;20365;-68
2022/10/09 08:58:41;;;;;;;;;;;23.00;92.10;;;;;;5014547;28;20040;-74
2022/10/09 09:01:10;;;;;;;;;;;23.10;93.00;;;;;;5017316;28;19979;-71
2022/10/09 09:03:52;;;;;;;;;;;23.20;91.50;;;;;;5034613;28;19937;-69
2022/10/09 09:06:37;;;;;;;;;;;23.50;92.00;;;;;;5033460;28;19924;-68
2022/10/09 09:09:08;;;;;;;;;;;23.90;91.00;;;;;;5016482;28;20426;-70
2022/10/09 09:11:43;;;;;;;;;;;24.00;91.40;;;;;;5016173;28;20016;-68
2022/10/09 09:14:27;;;;;;;;;;;24.10;90.40;;;;;;5013018;28;20004;-68
2022/10/09 09:17:00;;;;;;;;;;;24.00;88.20;;;;;;5031711;28;20292;-68
2022/10/09 09:19:29;;;;;;;;;;;23.40;90.90;;;;;;5031055;28;19921;-69
2022/10/09 09:21:56;;;;;;;;;;;23.80;90.20;;;;;;5015168;28;19960;-68
2022/10/09 09:24:34;;;;;;;;;;;23.20;89.60;;;;;;5033476;28;19928;-68
2022/10/09 09:27:02;;;;;;;;;;;23.50;90.80;;;;;;5015928;28;20015;-68
2022/10/09 09:29:33;;;;;;;;;;;23.70;90.50;;;;;;5016082;28;19921;-70
2022/10/09 09:32:02;;;;;;;;;;;24.20;90.40;;;;;;5016909;28;19921;-71
2022/10/09 09:34:34;;;;;;;;;;;24.10;88.60;;;;;;5014353;28;19921;-70
2022/10/09 09:37:00;;;;;;;;;;;24.30;87.80;;;;;;5015081;28;20011;-69
2022/10/09 09:39:27;;;;;;;;;;;23.70;88.70;;;;;;5014585;28;19924;-69
2022/10/09 09:41:56;;;;;;;;;;;23.50;89.20;;;;;;5015130;28;19927;-70
2022/10/09 09:44:24;;;;;;;;;;;23.70;90.00;;;;;;5033493;28;19921;-69
2022/10/09 09:46:49;;;;;;;;;;;24.20;90.20;;;;;;5031898;28;19925;-69
2022/10/09 09:49:16;;;;;;;;;;;24.30;88.30;;;;;;5032114;28;19921;-69
2022/10/09 09:51:42;;;;;;;;;;;24.20;86.90;;;;;;5013858;28;20392;-69
2022/10/09 09:54:16;;;;;;;;;;;24.40;85.00;;;;;;5009787;28;19932;-69
2022/10/09 09:56:43;;;;;;;;;;;24.00;85.70;;;;;;5002861;28;19965;-69
2022/10/09 09:59:24;;;;;;;;;;;24.20;87.20;;;;;;5006132;28;19974;-69
2022/10/09 10:02:00;;;;;;;;;;;24.10;86.50;;;;;;5030086;28;19921;-69
2022/10/09 10:04:27;;;;;;;;;;;24.00;87.30;;;;;;5010629;28;19971;-67
2022/10/09 10:06:53;;;;;;;;;;;23.60;87.30;;;;;;5031694;28;19921;-67
2022/10/09 10:09:19;;;;;;;;;;;23.70;87.70;;;;;;5014683;28;19924;-67
2022/10/09 10:12:02;;;;;;;;;;;24.10;87.40;;;;;;5015711;28;19929;-69
2022/10/09 10:14:28;;;;;;;;;;;24.60;85.80;;;;;;5014519;28;19921;-68
2022/10/09 10:16:54;;;;;;;;;;;25.10;83.00;;;;;;5010705;28;20025;-74
2022/10/09 10:19:20;;;;;;;;;;;24.70;83.60;;;;;;5007473;28;19928;-72
2022/10/09 10:21:47;;;;;;;;;;;24.90;84.10;;;;;;5015731;28;19921;-72
2022/10/09 10:24:19;;;;;;;;;;;24.90;84.60;;;;;;5014634;28;19956;-73
2022/10/09 10:26:45;;;;;;;;;;;24.50;84.50;;;;;;5015999;28;20010;-69
2022/10/09 10:29:10;;;;;;;;;;;24.90;84.30;;;;;;5010827;28;19971;-71
2022/10/09 10:31:45;;;;;;;;;;;25.10;84.40;;;;;;5002945;28;19932;-78
2022/10/09 10:34:18;;;;;;;;;;;24.80;82.10;;;;;;5011731;28;19921;-71
2022/10/09 10:36:44;;;;;;;;;;;23.90;84.10;;;;;;5015328;28;20418;-70
2022/10/09 10:39:15;;;;;;;;;;;23.50;84.50;;;;;;5014535;28;19917;-69
2022/10/09 10:41:46;;;;;;;;;;;23.10;85.70;;;;;;5011378;28;19921;-70
2022/10/09 10:44:22;;;;;;;;;;;23.10;86.30;;;;;;5032600;28;20381;-69
2022/10/09 10:46:53;;;;;;;;;;;23.50;86.30;;;;;;5015423;28;19921;-71
2022/10/09 10:49:23;;;;;;;;;;;23.60;83.50;;;;;;5010045;28;20285;-71
2022/10/09 10:51:48;;;;;;;;;;;23.70;83.80;;;;;;5028561;28;19929;-70
2022/10/09 10:54:17;;;;;;;;;;;23.60;83.50;;;;;;5011221;28;19936;-70
2022/10/09 10:56:46;;;;;;;;;;;22.90;85.00;;;;;;5014576;28;20007;-68
2022/10/09 10:59:27;;;;;;;;;;;23.10;85.00;;;;;;5031019;28;20008;-71
2022/10/09 11:02:02;;;;;;;;;;;23.20;86.00;;;;;;5032352;28;19921;-69
2022/10/09 11:04:31;;;;;;;;;;;23.50;84.80;;;;;;5014028;28;19928;-69
2022/10/09 11:06:59;;;;;;;;;;;23.40;84.10;;;;;;5014381;28;19978;-69
2022/10/09 11:09:25;;;;;;;;;;;23.10;83.20;;;;;;5014644;28;19974;-69
2022/10/09 11:12:00;;;;;;;;;;;22.90;82.30;;;;;;5014833;28;19991;-69
2022/10/09 11:14:26;;;;;;;;;;;22.90;83.30;;;;;;5013763;28;19967;-69
2022/10/09 11:16:51;;;;;;;;;;;23.00;84.10;;;;;;5014298;28;19928;-68
2022/10/09 11:19:17;;;;;;;;;;;23.40;84.70;;;;;;5013324;28;20043;-69
2022/10/09 11:22:05;;;;;;;;;;;23.30;83.70;;;;;;5008785;28;20312;-69
2022/10/09 11:24:45;;;;;;;;;;;23.60;84.30;;;;;;4994032;28;20376;-69
2022/10/09 11:27:17;;;;;;;;;;;23.30;84.00;;;;;;5012527;28;20304;-69
2022/10/09 11:29:46;;;;;;;;;;;23.50;84.50;;;;;;5014452;28;20361;-71
2022/10/09 11:32:18;;;;;;;;;;;23.40;84.30;;;;;;5014072;28;19921;-71
2022/10/09 11:34:47;;;;;;;;;;;23.40;84.30;;;;;;5012746;28;20381;-71
2022/10/09 11:37:22;;;;;;;;;;;23.20;85.30;;;;;;5030670;28;20436;-71
2022/10/09 11:39:47;;;;;;;;;;;23.00;84.50;;;;;;5013771;28;19925;-71
2022/10/09 11:42:17;;;;;;;;;;;22.70;84.80;;;;;;5012644;28;19921;-71
2022/10/09 11:44:48;;;;;;;;;;;22.30;85.50;;;;;;5031259;28;19960;-71
2022/10/09 11:47:30;;;;;;;;;;;22.60;84.20;;;;;;5012709;28;20341;-71
2022/10/09 11:49:56;;;;;;;;;;;22.90;82.80;;;;;;5012827;28;19927;-72
2022/10/09 11:52:30;;;;;;;;;;;22.50;83.20;;;;;;5013766;28;19925;-70
2022/10/09 11:55:06;;;;;;;;;;;22.90;86.00;;;;;;5010018;28;20376;-68
2022/10/09 11:57:32;;;;;;;;;;;23.50;83.80;;;;;;5031983;28;19921;-69
2022/10/09 12:00:03;;;;;;;;;;;23.50;85.00;;;;;;5028785;28;19972;-68
2022/10/09 12:02:29;;;;;;;;;;;23.70;83.50;;;;;;5010777;28;20721;-69
2022/10/09 12:04:55;;;;;;;;;;;23.50;84.20;;;;;;5009900;28;19927;-70
2022/10/09 12:07:29;;;;;;;;;;;23.30;85.60;;;;;;5007925;28;19968;-72
2022/10/09 12:09:57;;;;;;;;;;;23.30;84.70;;;;;;5011031;28;19967;-72
2022/10/09 12:12:22;;;;;;;;;;;22.80;84.30;;;;;;5030332;28;20381;-74
2022/10/09 12:14:50;;;;;;;;;;;22.60;85.20;;;;;;5031530;28;19979;-66
2022/10/09 12:17:37;;;;;;;;;;;22.50;86.90;;;;;;5009543;28;19963;-67
2022/10/09 12:20:20;;;;;;;;;;;22.50;84.80;;;;;;5010185;28;19948;-67
2022/10/09 12:22:48;;;;;;;;;;;22.30;85.60;;;;;;5026542;28;19929;-72
2022/10/09 12:25:24;;;;;;;;;;;22.20;86.90;;;;;;5029812;28;20377;-68
2022/10/09 12:27:54;;;;;;;;;;;22.40;86.10;;;;;;5012446;28;19921;-68
2022/10/09 12:30:21;;;;;;;;;;;22.30;86.10;;;;;;5030670;28;20047;-67
2022/10/09 12:32:54;;;;;;;;;;;22.20;85.80;;;;;;5022241;28;19921;-67
2022/10/09 12:35:30;;;;;;;;;;;22.20;84.60;;;;;;5010907;28;19933;-68
2022/10/09 12:37:56;;;;;;;;;;;22.20;84.80;;;;;;5010568;28;20430;-68
2022/10/09 12:40:24;;;;;;;;;;;22.20;86.60;;;;;;5029123;28;20004;-68
2022/10/09 12:42:52;;;;;;;;;;;22.10;84.80;;;;;;5029749;28;19921;-67
2022/10/09 12:45:18;;;;;;;;;;;22.00;85.00;;;;;;5027562;28;20265;-67
2022/10/09 12:47:44;;;;;;;;;;;22.00;85.40;;;;;;5030878;28;19928;-67
2022/10/09 12:50:15;;;;;;;;;;;21.80;85.80;;;;;;5012855;28;19921;-67
2022/10/09 12:52:48;;;;;;;;;;;21.90;86.30;;;;;;5012002;28;19999;-70
2022/10/09 12:55:15;;;;;;;;;;;21.60;85.60;;;;;;5011660;28;20020;-67
2022/10/09 12:57:41;;;;;;;;;;;21.10;86.60;;;;;;5029642;28;19921;-67
2022/10/09 13:00:06;;;;;;;;;;;20.70;87.90;;;;;;5027279;28;19927;-68
2022/10/09 13:02:32;;;;;;;;;;;20.30;89.50;;;;;;5012702;28;20008;-68
2022/10/09 13:04:59;;;;;;;;;;;20.20;87.80;;;;;;5011745;28;19967;-67
2022/10/09 13:07:26;;;;;;;;;;;19.90;88.10;;;;;;5013014;28;19921;-68
2022/10/09 13:09:57;;;;;;;;;;;19.70;89.80;;;;;;5028948;28;19949;-70
2022/10/09 13:12:26;;;;;;;;;;;19.60;89.40;;;;;;5008225;28;19964;-68
2022/10/09 13:14:59;;;;;;;;;;;19.70;88.70;;;;;;5011882;28;20376;-67
2022/10/09 13:17:29;;;;;;;;;;;19.50;88.70;;;;;;5012704;28;20015;-67
2022/10/09 13:19:56;;;;;;;;;;;19.40;89.30;;;;;;5029512;28;19928;-71
2022/10/09 13:22:23;;;;;;;;;;;19.30;89.40;;;;;;5031988;28;19923;-66
2022/10/09 13:24:49;;;;;;;;;;;19.20;90.20;;;;;;5016559;28;19921;-70
2022/10/09 13:27:18;;;;;;;;;;;19.20;90.30;;;;;;5030306;28;20008;-69
2022/10/09 13:29:44;;;;;;;;;;;19.20;88.60;;;;;;5016594;28;19955;-68
2022/10/09 13:32:13;;;;;;;;;;;19.20;88.80;;;;;;5034801;28;20015;-68
2022/10/09 13:34:39;;;;;;;;;;;18.90;89.80;;;;;;5012191;28;19967;-71
2022/10/09 13:37:05;;;;;;;;;;;18.70;90.00;;;;;;5011817;28;19925;-68
2022/10/09 13:39:31;;;;;;;;;;;18.50;90.00;;;;;;5015306;28;20032;-68
2022/10/09 13:41:57;;;;;;;;;;;18.40;90.30;;;;;;5013834;28;19921;-69
2022/10/09 13:44:23;;;;;;;;;;;18.10;90.90;;;;;;5014761;28;20429;-68
2022/10/09 13:46:48;;;;;;;;;;;18.00;90.80;;;;;;5032047;28;20011;-68
2022/10/09 13:49:14;;;;;;;;;;;17.70;91.10;;;;;;5015055;28;20388;-68
2022/10/09 13:51:40;;;;;;;;;;;17.70;91.50;;;;;;5012421;28;20411;-69
2022/10/09 13:54:05;;;;;;;;;;;17.60;91.80;;;;;;5011879;28;19921;-69
2022/10/09 13:56:31;;;;;;;;;;;17.40;92.20;;;;;;5015129;28;19932;-69
2022/10/09 13:58:57;;;;;;;;;;;17.50;91.50;;;;;;5015617;28;19929;-70
2022/10/09 14:01:22;;;;;;;;;;;17.50;91.30;;;;;;5031671;28;19921;-70
2022/10/09 14:03:48;;;;;;;;;;;17.40;91.70;;;;;;5033484;28;19928;-71
2022/10/09 14:06:16;;;;;;;;;;;17.40;92.40;;;;;;5016224;28;19921;-68
2022/10/09 14:08:42;;;;;;;;;;;17.70;91.70;;;;;;5015168;28;19944;-68
2022/10/09 14:11:07;;;;;;;;;;;17.60;92.30;;;;;;5015214;28;20408;-69
2022/10/09 14:13:33;;;;;;;;;;;17.40;92.70;;;;;;5015000;28;20003;-68
2022/10/09 14:15:58;;;;;;;;;;;17.30;92.40;;;;;;5015047;28;19921;-69
2022/10/09 14:18:24;;;;;;;;;;;17.30;92.90;;;;;;5033784;28;19928;-69
2022/10/09 14:20:49;;;;;;;;;;;17.20;93.30;;;;;;5016127;28;19991;-69
2022/10/09 14:23:18;;;;;;;;;;;17.30;93.40;;;;;;5010993;28;20404;-69
2022/10/09 14:25:43;;;;;;;;;;;17.30;92.80;;;;;;5016039;28;19970;-69
2022/10/09 14:28:12;;;;;;;;;;;17.10;93.40;;;;;;5033448;28;20296;-69